createdAt,value
2018-09-19T00:01:30.038Z,63.57
2018-09-19T00:03:57.013Z,64.35
2018-09-19T00:06:24.032Z,63.47
2018-09-19T00:08:51.029Z,63.40
2018-09-19T00:11:18.054Z,64.13
2018-09-19T00:13:44.970Z,63.44
2018-09-19T00:16:11.913Z,64.16
2018-09-19T00:18:38.878Z,64.07
2018-09-19T00:21:05.822Z,63.84
2018-09-19T00:23:32.866Z,63.51
2018-09-19T00:25:59.886Z,64.23
2018-09-19T00:28:26.840Z,64.18
2018-09-19T00:30:53.812Z,63.88
2018-09-19T00:33:20.821Z,63.51
2018-09-19T00:35:47.767Z,63.93
2018-09-19T00:38:14.717Z,63.95
2018-09-19T00:40:41.721Z,64.03
2018-09-19T00:43:08.704Z,63.66
2018-09-19T00:45:35.688Z,63.54
2018-09-19T00:48:02.686Z,63.45
2018-09-19T00:50:29.677Z,64.25
2018-09-19T00:52:56.606Z,64.26
2018-09-19T00:55:23.565Z,63.41
2018-09-19T00:57:50.551Z,63.96
2018-09-19T01:00:17.537Z,63.91
2018-09-19T01:02:44.586Z,64.14
2018-09-19T01:05:11.578Z,64.25
2018-09-19T01:07:38.533Z,64.02
2018-09-19T01:10:05.452Z,64.10
2018-09-19T01:12:32.448Z,63.42
2018-09-19T01:14:59.371Z,63.58
2018-09-19T01:17:26.347Z,64.01
2018-09-19T01:19:53.258Z,63.78
2018-09-19T01:22:20.237Z,64.04
2018-09-19T01:24:47.193Z,64.07
2018-09-19T01:27:14.178Z,63.32
2018-09-19T01:29:41.150Z,64.02
2018-09-19T01:32:08.120Z,63.64
2018-09-19T01:34:35.102Z,64.15
2018-09-19T01:37:02.063Z,63.77
2018-09-19T01:39:29.138Z,64.27
2018-09-19T01:41:56.164Z,63.93
2018-09-19T01:44:23.110Z,63.40
2018-09-19T01:46:50.198Z,64.43
2018-09-19T01:49:17.133Z,63.87
2018-09-19T01:51:44.081Z,63.60
2018-09-19T01:54:11.175Z,63.62
2018-09-19T01:56:38.211Z,64.01
2018-09-19T01:59:05.194Z,63.51
2018-09-19T02:01:32.122Z,64.26
2018-09-19T02:03:59.115Z,64.28
2018-09-19T02:06:26.068Z,64.09
2018-09-19T02:08:53.066Z,64.11
2018-09-19T02:11:20.017Z,64.19
2018-09-19T02:13:46.994Z,63.46
2018-09-19T02:16:13.926Z,63.97
2018-09-19T02:18:40.913Z,64.08
2018-09-19T02:21:07.918Z,63.72
2018-09-19T02:23:34.978Z,64.23
2018-09-19T02:26:02.108Z,64.19
2018-09-19T02:28:29.152Z,64.01
2018-09-19T02:30:56.120Z,63.61
2018-09-19T02:33:23.217Z,63.93
2018-09-19T02:35:50.203Z,63.89
2018-09-19T02:38:17.155Z,63.33
2018-09-19T02:40:44.119Z,63.92
2018-09-19T02:43:11.105Z,64.41
2018-09-19T02:45:38.035Z,64.46
2018-09-19T02:48:05.042Z,64.55
2018-09-19T02:50:32.041Z,64.08
2018-09-19T02:52:59.133Z,64.07
2018-09-19T02:55:27.080Z,64.76
2018-09-19T02:57:54.094Z,64.63
2018-09-19T03:00:21.151Z,64.36
2018-09-19T03:02:48.120Z,64.53
2018-09-19T03:05:15.126Z,63.94
2018-09-19T03:07:42.111Z,64.25
2018-09-19T03:10:09.038Z,63.89
2018-09-19T03:12:36.368Z,64.09
2018-09-19T03:15:03.332Z,64.22
2018-09-19T03:17:30.422Z,64.33
2018-09-19T03:19:57.450Z,63.97
2018-09-19T03:22:24.438Z,63.89
2018-09-19T03:24:51.525Z,64.37
2018-09-19T03:27:18.630Z,64.72
2018-09-19T03:29:45.625Z,64.47
2018-09-19T03:32:12.609Z,63.89
2018-09-19T03:34:39.624Z,64.40
2018-09-19T03:37:06.624Z,64.51
2018-09-19T03:39:33.596Z,64.30
2018-09-19T03:42:00.585Z,64.60
2018-09-19T03:44:27.570Z,64.12
2018-09-19T03:46:54.628Z,64.46
2018-09-19T03:49:21.569Z,64.03
2018-09-19T03:51:48.577Z,63.97
2018-09-19T03:54:15.570Z,63.84
2018-09-19T03:56:42.516Z,63.76
2018-09-19T03:59:09.828Z,64.35
2018-09-19T04:01:36.772Z,64.64
2018-09-19T04:04:03.760Z,63.82
2018-09-19T04:06:30.717Z,63.92
2018-09-19T04:08:57.697Z,64.53
2018-09-19T04:11:24.678Z,64.14
2018-09-19T04:13:51.658Z,64.04
2018-09-19T04:16:18.632Z,64.04
2018-09-19T04:18:45.629Z,64.01
2018-09-19T04:21:12.557Z,63.89
2018-09-19T04:23:39.484Z,64.66
2018-09-19T04:26:06.388Z,64.50
2018-09-19T04:28:33.307Z,64.25
2018-09-19T04:31:00.297Z,63.84
2018-09-19T04:33:27.233Z,63.91
2018-09-19T04:35:54.246Z,63.66
2018-09-19T04:38:21.231Z,63.83
2018-09-19T04:40:48.198Z,64.51
2018-09-19T04:43:15.158Z,63.90
2018-09-19T04:45:42.209Z,63.68
2018-09-19T04:48:09.860Z,63.98
2018-09-19T04:50:36.804Z,63.75
2018-09-19T04:53:03.746Z,64.39
2018-09-19T04:55:30.722Z,63.61
2018-09-19T04:57:57.652Z,63.97
2018-09-19T05:00:24.600Z,64.46
2018-09-19T05:02:51.555Z,64.31
2018-09-19T05:05:18.513Z,64.05
2018-09-19T05:07:45.522Z,63.80
2018-09-19T05:10:12.428Z,63.85
2018-09-19T05:12:39.340Z,64.15
2018-09-19T05:15:06.330Z,64.58
2018-09-19T05:17:33.385Z,64.64
2018-09-19T05:20:00.322Z,63.96
2018-09-19T05:22:27.302Z,64.05
2018-09-19T05:24:54.260Z,64.09
2018-09-19T05:27:21.223Z,64.64
2018-09-19T05:29:48.387Z,64.21
2018-09-19T05:32:15.353Z,64.47
2018-09-19T05:34:42.338Z,63.98
2018-09-19T05:37:09.322Z,63.99
2018-09-19T05:39:36.313Z,64.62
2018-09-19T05:42:03.242Z,64.58
2018-09-19T05:44:30.228Z,63.93
2018-09-19T05:46:57.199Z,64.50
2018-09-19T05:49:24.203Z,64.48
2018-09-19T05:51:51.239Z,63.75
2018-09-19T05:54:18.152Z,64.45
2018-09-19T05:56:45.118Z,64.44
2018-09-19T05:59:12.109Z,64.04
2018-09-19T06:01:39.095Z,63.99
2018-09-19T06:04:06.077Z,64.42
2018-09-19T06:06:33.229Z,64.18
2018-09-19T06:09:00.214Z,63.65
2018-09-19T06:11:27.174Z,64.42
2018-09-19T06:13:54.085Z,64.33
2018-09-19T06:16:21.098Z,64.44
2018-09-19T06:18:48.090Z,63.97
2018-09-19T06:21:15.082Z,64.61
2018-09-19T06:23:42.044Z,63.93
2018-09-19T06:26:09.048Z,64.38
2018-09-19T06:28:36.029Z,63.83
2018-09-19T06:31:03.005Z,63.65
2018-09-19T06:33:30.015Z,64.24
2018-09-19T06:35:56.904Z,63.85
2018-09-19T06:38:23.881Z,64.23
2018-09-19T06:40:50.924Z,63.97
2018-09-19T06:43:17.825Z,64.38
2018-09-19T06:45:44.907Z,64.66
2018-09-19T06:48:11.888Z,63.79
2018-09-19T06:50:38.835Z,64.30
2018-09-19T06:53:05.787Z,65.05
2018-09-19T06:55:32.794Z,65.43
2018-09-19T06:57:59.739Z,66.34
2018-09-19T07:00:26.654Z,65.75
2018-09-19T07:02:53.574Z,66.13
2018-09-19T07:05:20.460Z,66.90
2018-09-19T07:07:47.418Z,66.86
2018-09-19T07:10:14.325Z,66.36
2018-09-19T07:12:41.243Z,67.23
2018-09-19T07:15:08.143Z,67.27
2018-09-19T07:17:35.041Z,67.43
2018-09-19T07:20:01.979Z,66.51
2018-09-19T07:22:28.874Z,67.50
2018-09-19T07:24:55.774Z,70.34
2018-09-19T07:27:22.680Z,72.06
2018-09-19T07:29:49.928Z,73.00
2018-09-19T07:32:16.911Z,71.99
2018-09-19T07:34:43.845Z,72.64
2018-09-19T07:37:10.876Z,73.11
2018-09-19T07:39:37.896Z,73.16
2018-09-19T07:42:04.930Z,73.85
2018-09-19T07:44:31.929Z,73.33
2018-09-19T07:46:59.062Z,73.65
2018-09-19T07:49:26.090Z,73.73
2018-09-19T07:51:53.023Z,75.44
2018-09-19T07:54:19.979Z,73.95
2018-09-19T07:56:46.859Z,74.21
2018-09-19T07:59:13.844Z,74.33
2018-09-19T08:01:40.881Z,74.21
2018-09-19T08:04:07.902Z,73.47
2018-09-19T08:06:34.882Z,73.34
2018-09-19T08:09:01.892Z,73.23
2018-09-19T08:11:28.901Z,70.14
2018-09-19T08:13:55.881Z,71.12
2018-09-19T08:16:22.843Z,69.77
2018-09-19T08:18:49.904Z,69.11
2018-09-19T08:21:16.856Z,70.52
2018-09-19T08:23:43.824Z,69.75
2018-09-19T08:26:10.742Z,69.89
2018-09-19T08:28:37.769Z,68.73
2018-09-19T08:31:04.766Z,69.26
2018-09-19T08:33:31.723Z,70.14
2018-09-19T08:35:58.711Z,71.34
2018-09-19T08:38:25.707Z,68.50
2018-09-19T08:40:52.656Z,69.23
2018-09-19T08:43:19.694Z,69.49
2018-09-19T08:45:46.693Z,67.80
2018-09-19T08:48:13.702Z,67.89
2018-09-19T08:50:40.730Z,68.97
2018-09-19T08:53:07.748Z,69.31
2018-09-19T08:55:34.718Z,67.30
2018-09-19T08:58:01.834Z,67.43
2018-09-19T09:00:28.848Z,69.01
2018-09-19T09:02:55.813Z,68.71
2018-09-19T09:05:22.796Z,66.59
2018-09-19T09:07:49.777Z,66.32
2018-09-19T09:10:16.673Z,66.51
2018-09-19T09:12:43.613Z,67.01
2018-09-19T09:15:10.521Z,65.96
2018-09-19T09:17:37.421Z,66.04
2018-09-19T09:20:04.364Z,67.07
2018-09-19T09:22:31.228Z,66.39
2018-09-19T09:24:58.201Z,66.97
2018-09-19T09:27:25.143Z,66.19
2018-09-19T09:29:52.028Z,66.74
2018-09-19T09:32:18.962Z,65.91
2018-09-19T09:34:45.861Z,66.80
2018-09-19T09:37:12.781Z,66.85
2018-09-19T09:39:39.861Z,66.53
2018-09-19T09:42:06.752Z,66.06
2018-09-19T09:44:33.643Z,65.96
2018-09-19T09:47:00.570Z,66.16
2018-09-19T09:49:27.439Z,66.36
2018-09-19T09:51:54.352Z,66.63
2018-09-19T09:54:21.249Z,65.68
2018-09-19T09:56:48.161Z,65.91
2018-09-19T09:59:15.064Z,65.68
2018-09-19T10:01:41.997Z,65.65
2018-09-19T10:04:08.892Z,65.43
2018-09-19T10:06:35.841Z,65.58
2018-09-19T10:09:02.795Z,66.11
2018-09-19T10:11:29.710Z,66.29
2018-09-19T10:13:56.641Z,65.79
2018-09-19T10:16:23.530Z,66.22
2018-09-19T10:18:50.438Z,65.90
2018-09-19T10:21:17.360Z,65.56
2018-09-19T10:23:44.245Z,65.50
2018-09-19T10:26:11.128Z,66.16
2018-09-19T10:28:38.012Z,65.50
2018-09-19T10:31:04.914Z,65.96
2018-09-19T10:33:31.852Z,65.85
2018-09-19T10:35:58.754Z,65.54
2018-09-19T10:38:25.660Z,66.03
2018-09-19T10:40:52.542Z,65.96
2018-09-19T10:43:19.452Z,65.46
2018-09-19T10:45:46.348Z,65.03
2018-09-19T10:48:13.292Z,65.27
2018-09-19T10:50:40.188Z,65.70
2018-09-19T10:53:07.104Z,65.35
2018-09-19T10:55:34.017Z,65.74
2018-09-19T10:58:00.909Z,64.76
2018-09-19T11:00:27.796Z,65.68
2018-09-19T11:02:54.699Z,65.72
2018-09-19T11:05:21.593Z,65.31
2018-09-19T11:07:48.478Z,65.70
2018-09-19T11:10:15.377Z,65.24
2018-09-19T11:12:42.280Z,64.89
2018-09-19T11:15:09.198Z,64.95
2018-09-19T11:17:36.090Z,65.61
2018-09-19T11:20:03.041Z,65.64
2018-09-19T11:22:29.955Z,65.93
2018-09-19T11:24:56.892Z,65.68
2018-09-19T11:27:23.777Z,65.71
2018-09-19T11:29:50.677Z,65.51
2018-09-19T11:32:17.602Z,65.25
2018-09-19T11:34:44.480Z,65.70
2018-09-19T11:37:11.364Z,64.93
2018-09-19T11:39:38.340Z,65.53
2018-09-19T11:42:05.229Z,65.33
2018-09-19T11:44:32.146Z,65.20
2018-09-19T11:46:59.030Z,64.67
2018-09-19T11:49:25.922Z,65.51
2018-09-19T11:51:52.814Z,65.62
2018-09-19T11:54:19.710Z,65.45
2018-09-19T11:56:46.605Z,65.16
2018-09-19T11:59:13.505Z,65.50
2018-09-19T12:01:40.412Z,64.97
2018-09-19T12:04:07.291Z,65.34
2018-09-19T12:06:34.194Z,64.75
2018-09-19T12:09:01.096Z,65.65
2018-09-19T12:11:27.984Z,65.04
2018-09-19T12:13:54.871Z,65.36
2018-09-19T12:16:21.769Z,65.33
2018-09-19T12:18:48.657Z,64.83
2018-09-19T12:21:15.554Z,64.98
2018-09-19T12:23:42.465Z,65.58
2018-09-19T12:26:09.357Z,65.50
2018-09-19T12:28:36.257Z,65.16
2018-09-19T12:31:03.158Z,64.89
2018-09-19T12:33:30.057Z,64.90
2018-09-19T12:35:56.953Z,64.64
2018-09-19T12:38:23.849Z,64.66
2018-09-19T12:40:50.770Z,64.89
2018-09-19T12:43:17.653Z,65.05
2018-09-19T12:45:44.555Z,65.28
2018-09-19T12:48:11.459Z,65.43
2018-09-19T12:50:38.351Z,65.59
2018-09-19T12:53:05.557Z,65.53
2018-09-19T12:55:32.499Z,64.96
2018-09-19T12:57:59.461Z,65.46
2018-09-19T13:00:26.512Z,65.03
2018-09-19T13:02:53.483Z,64.99
2018-09-19T13:05:20.385Z,65.18
2018-09-19T13:07:47.434Z,65.28
2018-09-19T13:10:14.330Z,65.53
2018-09-19T13:12:41.238Z,64.90
2018-09-19T13:15:08.264Z,65.46
2018-09-19T13:17:35.254Z,65.65
2018-09-19T13:20:02.177Z,65.28
2018-09-19T13:22:29.071Z,64.95
2018-09-19T13:24:56.201Z,64.84
2018-09-19T13:27:23.414Z,64.83
2018-09-19T13:29:50.362Z,65.36
2018-09-19T13:32:17.373Z,65.35
2018-09-19T13:34:44.437Z,65.65
2018-09-19T13:37:11.866Z,64.69
2018-09-19T13:39:38.802Z,64.87
2018-09-19T13:42:05.748Z,64.76
2018-09-19T13:44:32.718Z,65.00
2018-09-19T13:46:59.746Z,64.77
2018-09-19T13:49:26.640Z,65.42
2018-09-19T13:51:53.657Z,65.34
2018-09-19T13:54:20.652Z,64.86
2018-09-19T13:56:47.671Z,65.63
2018-09-19T13:59:14.774Z,64.79
2018-09-19T14:01:41.753Z,65.22
2018-09-19T14:04:08.661Z,65.15
2018-09-19T14:06:35.601Z,65.27
2018-09-19T14:09:02.612Z,64.82
2018-09-19T14:11:29.535Z,64.87
2018-09-19T14:13:56.477Z,64.94
2018-09-19T14:16:23.452Z,65.30
2018-09-19T14:18:50.421Z,64.77
2018-09-19T14:21:17.382Z,65.37
2018-09-19T14:23:44.349Z,65.50
2018-09-19T14:26:11.618Z,64.94
2018-09-19T14:28:38.702Z,64.92
2018-09-19T14:31:05.737Z,65.07
2018-09-19T14:33:32.898Z,64.98
2018-09-19T14:35:59.935Z,64.96
2018-09-19T14:38:26.868Z,64.90
2018-09-19T14:40:53.816Z,64.90
2018-09-19T14:43:20.859Z,65.51
2018-09-19T14:45:47.899Z,65.48
2018-09-19T14:48:14.850Z,65.44
2018-09-19T14:50:41.936Z,65.70
2018-09-19T14:53:09.056Z,65.06
2018-09-19T14:55:36.035Z,65.18
2018-09-19T14:58:03.005Z,64.82
2018-09-19T15:00:30.057Z,65.05
2018-09-19T15:02:57.090Z,65.12
2018-09-19T15:05:24.084Z,65.04
2018-09-19T15:07:51.070Z,65.17
2018-09-19T15:10:18.021Z,65.81
2018-09-19T15:12:44.976Z,65.41
2018-09-19T15:15:11.927Z,65.09
2018-09-19T15:17:38.873Z,65.44
2018-09-19T15:20:05.791Z,65.66
2018-09-19T15:22:32.709Z,65.70
2018-09-19T15:24:59.675Z,65.57
2018-09-19T15:27:26.650Z,64.89
2018-09-19T15:29:53.588Z,64.74
2018-09-19T15:32:20.524Z,65.63
2018-09-19T15:34:47.470Z,65.22
2018-09-19T15:37:14.377Z,65.60
2018-09-19T15:39:41.311Z,64.67
2018-09-19T15:42:08.280Z,65.20
2018-09-19T15:44:35.178Z,64.86
2018-09-19T15:47:02.117Z,64.65
2018-09-19T15:49:29.082Z,65.40
2018-09-19T15:51:56.077Z,65.46
2018-09-19T15:54:22.988Z,65.42
2018-09-19T15:56:49.893Z,64.55
2018-09-19T15:59:17.167Z,64.81
2018-09-19T16:01:44.148Z,64.79
2018-09-19T16:04:11.138Z,64.73
2018-09-19T16:06:38.088Z,64.78
2018-09-19T16:09:05.290Z,65.05
2018-09-19T16:11:32.261Z,65.22
2018-09-19T16:13:59.241Z,64.45
2018-09-19T16:16:26.482Z,64.54
2018-09-19T16:18:53.389Z,65.29
2018-09-19T16:21:20.285Z,64.67
2018-09-19T16:23:47.210Z,65.26
2018-09-19T16:26:14.134Z,64.56
2018-09-19T16:28:41.030Z,64.89
2018-09-19T16:31:08.319Z,64.71
2018-09-19T16:33:35.309Z,64.56
2018-09-19T16:36:02.242Z,64.70
2018-09-19T16:38:29.148Z,65.39
2018-09-19T16:40:56.053Z,64.82
2018-09-19T16:43:22.956Z,64.88
2018-09-19T16:45:50.028Z,65.47
2018-09-19T16:48:16.885Z,65.30
2018-09-19T16:50:43.774Z,64.66
2018-09-19T16:53:10.676Z,64.73
2018-09-19T16:55:37.587Z,65.27
2018-09-19T16:58:04.484Z,65.46
2018-09-19T17:00:31.404Z,65.31
2018-09-19T17:02:58.342Z,65.39
2018-09-19T17:05:25.239Z,64.88
2018-09-19T17:07:52.149Z,64.85
2018-09-19T17:10:19.059Z,65.36
2018-09-19T17:12:46.011Z,64.95
2018-09-19T17:15:13.013Z,64.49
2018-09-19T17:17:39.889Z,65.12
2018-09-19T17:20:06.806Z,64.59
2018-09-19T17:22:33.713Z,64.71
2018-09-19T17:25:00.615Z,64.67
2018-09-19T17:27:27.501Z,64.57
2018-09-19T17:29:54.451Z,64.46
2018-09-19T17:32:21.418Z,64.49
2018-09-19T17:34:48.377Z,65.04
2018-09-19T17:37:15.316Z,65.13
2018-09-19T17:39:42.230Z,64.89
2018-09-19T17:42:09.133Z,64.67
2018-09-19T17:44:36.021Z,64.49
2018-09-19T17:47:02.955Z,64.34
2018-09-19T17:49:29.889Z,65.06
2018-09-19T17:51:56.795Z,64.51
2018-09-19T17:54:23.692Z,65.11
2018-09-19T17:56:50.633Z,64.48
2018-09-19T17:59:17.530Z,65.10
2018-09-19T18:01:44.424Z,64.84
2018-09-19T18:04:11.371Z,64.39
2018-09-19T18:06:38.266Z,64.47
2018-09-19T18:09:05.523Z,65.33
2018-09-19T18:11:32.438Z,65.04
2018-09-19T18:13:59.345Z,64.43
2018-09-19T18:16:26.300Z,64.79
2018-09-19T18:18:53.198Z,64.76
2018-09-19T18:21:20.137Z,65.14
2018-09-19T18:23:47.050Z,64.46
2018-09-19T18:26:13.970Z,64.56
2018-09-19T18:28:41.556Z,65.16
2018-09-19T18:31:08.444Z,64.99
2018-09-19T18:33:35.409Z,64.56
2018-09-19T18:36:02.317Z,64.91
2018-09-19T18:38:29.278Z,64.56
2018-09-19T18:40:56.221Z,64.41
2018-09-19T18:43:23.117Z,64.44
2018-09-19T18:45:50.081Z,64.54
2018-09-19T18:48:17.006Z,64.29
2018-09-19T18:50:43.900Z,64.59
2018-09-19T18:53:11.036Z,65.10
2018-09-19T18:55:37.988Z,64.94
2018-09-19T18:58:04.880Z,64.88
2018-09-19T19:00:31.807Z,64.42
2018-09-19T19:02:58.929Z,64.95
2018-09-19T19:05:25.857Z,64.43
2018-09-19T19:07:52.800Z,64.72
2018-09-19T19:10:19.687Z,64.31
2018-09-19T19:12:46.580Z,64.40
2018-09-19T19:15:13.474Z,64.99
2018-09-19T19:17:40.365Z,64.64
2018-09-19T19:20:07.265Z,64.52
2018-09-19T19:22:34.175Z,65.20
2018-09-19T19:25:01.069Z,64.52
2018-09-19T19:27:27.985Z,64.38
2018-09-19T19:29:54.882Z,64.83
2018-09-19T19:32:21.773Z,64.37
2018-09-19T19:34:48.673Z,64.78
2018-09-19T19:37:15.647Z,64.33
2018-09-19T19:39:42.560Z,65.21
2018-09-19T19:42:09.470Z,64.38
2018-09-19T19:44:36.393Z,65.15
2018-09-19T19:47:03.332Z,65.01
2018-09-19T19:49:30.237Z,64.51
2018-09-19T19:51:57.247Z,64.48
2018-09-19T19:54:24.146Z,64.19
2018-09-19T19:56:51.111Z,64.95
2018-09-19T19:59:18.045Z,64.63
2018-09-19T20:01:44.983Z,65.32
2018-09-19T20:04:11.877Z,64.32
2018-09-19T20:06:38.879Z,64.41
2018-09-19T20:09:05.756Z,64.52
2018-09-19T20:11:32.659Z,64.78
2018-09-19T20:13:59.582Z,64.60
2018-09-19T20:16:26.553Z,64.77
2018-09-19T20:18:53.420Z,64.96
2018-09-19T20:21:20.333Z,64.56
2018-09-19T20:23:47.229Z,64.92
2018-09-19T20:26:14.162Z,64.74
2018-09-19T20:28:41.182Z,64.52
2018-09-19T20:31:08.115Z,65.35
2018-09-19T20:33:35.129Z,64.74
2018-09-19T20:36:02.080Z,65.45
2018-09-19T20:38:29.068Z,65.23
2018-09-19T20:40:56.084Z,64.96
2018-09-19T20:43:23.028Z,64.90
2018-09-19T20:45:50.012Z,65.15
2018-09-19T20:48:16.952Z,65.40
2018-09-19T20:50:44.023Z,65.46
2018-09-19T20:53:10.964Z,65.47
2018-09-19T20:55:37.949Z,65.28
2018-09-19T20:58:05.028Z,65.58
2018-09-19T21:00:31.960Z,64.79
2018-09-19T21:02:59.254Z,65.11
2018-09-19T21:05:26.507Z,65.69
2018-09-19T21:07:53.696Z,65.44
2018-09-19T21:10:20.906Z,65.08
2018-09-19T21:12:47.846Z,65.37
2018-09-19T21:15:14.791Z,65.74
2018-09-19T21:17:41.750Z,64.77
2018-09-19T21:20:08.711Z,65.10
2018-09-19T21:22:35.717Z,65.51
2018-09-19T21:25:02.592Z,64.83
2018-09-19T21:27:29.604Z,64.81
2018-09-19T21:29:56.549Z,65.68
2018-09-19T21:32:23.608Z,65.29
2018-09-19T21:34:50.501Z,64.87
2018-09-19T21:37:17.559Z,64.70
2018-09-19T21:39:44.540Z,64.83
2018-09-19T21:42:11.510Z,64.87
2018-09-19T21:44:38.496Z,65.72
2018-09-19T21:47:05.411Z,64.99
2018-09-19T21:49:32.353Z,65.39
2018-09-19T21:51:59.358Z,64.93
2018-09-19T21:54:26.328Z,65.00
2018-09-19T21:56:53.322Z,65.59
2018-09-19T21:59:20.303Z,65.48
2018-09-19T22:01:51.420Z,65.35
2018-09-19T22:04:18.370Z,65.57
2018-09-19T22:06:45.333Z,65.11
2018-09-19T22:09:12.842Z,64.88
2018-09-19T22:11:40.079Z,64.82
2018-09-19T22:14:07.033Z,64.96
2018-09-19T22:16:33.998Z,65.17
2018-09-19T22:19:00.941Z,65.15
2018-09-19T22:21:27.925Z,65.49
2018-09-19T22:23:54.916Z,65.61
2018-09-19T22:26:21.857Z,65.58
2018-09-19T22:28:48.847Z,65.53
2018-09-19T22:31:15.817Z,65.09
2018-09-19T22:33:42.773Z,65.51
2018-09-19T22:36:09.702Z,65.56
2018-09-19T22:38:36.661Z,65.12
2018-09-19T22:41:03.607Z,65.10
2018-09-19T22:43:30.607Z,65.41
2018-09-19T22:45:57.581Z,65.45
2018-09-19T22:48:24.544Z,65.56
2018-09-19T22:50:51.503Z,64.65
2018-09-19T22:53:18.504Z,65.51
2018-09-19T22:55:45.454Z,65.08
2018-09-19T22:58:12.397Z,65.25
2018-09-19T23:00:39.399Z,64.92
2018-09-19T23:03:06.443Z,64.72
2018-09-19T23:05:33.393Z,65.53
2018-09-19T23:08:00.347Z,65.39
2018-09-19T23:10:27.311Z,65.19
2018-09-19T23:12:54.267Z,64.86
2018-09-19T23:15:21.232Z,64.96
2018-09-19T23:17:48.229Z,64.90
2018-09-19T23:20:15.332Z,65.08
2018-09-19T23:22:42.256Z,65.13
2018-09-19T23:25:09.226Z,65.03
2018-09-19T23:27:36.173Z,65.50
2018-09-19T23:30:03.113Z,65.34
2018-09-19T23:32:30.081Z,64.93
2018-09-19T23:34:57.036Z,65.61
2018-09-19T23:37:23.969Z,65.38
2018-09-19T23:39:50.981Z,64.81
2018-09-19T23:42:17.903Z,65.27
2018-09-19T23:44:44.873Z,65.59
2018-09-19T23:47:11.806Z,65.67
2018-09-19T23:49:38.760Z,64.87
2018-09-19T23:52:05.795Z,64.87
2018-09-19T23:54:32.764Z,65.61
2018-09-19T23:56:59.802Z,65.61
2018-09-19T23:59:26.783Z,64.98
